This is the latest recevied weather packets stored in our database for station/object AG1T-20. If no packets are shown the sender has not sent any weather packets the latest 10 day(s).
| Time | Temp. | Humidity | Pressure | Rain* | Wind** | Luminosity | Snow |
|---|---|---|---|---|---|---|---|
| 1788106805 | 20° C | 62% | 1020.2 hPa | 0 mm | - | 862 W/m² | - |
| 1788106205 | 19.44° C | 65% | 1020.2 hPa | 0 mm | - | 575 W/m² | - |
| 1788105605 | 18.89° C | 65% | 1020.2 hPa | 0 mm | - | 768 W/m² | - |
| 1788105005 | 18.89° C | 65% | 1019.8 hPa | 0 mm | - | 714 W/m² | - |
| 1788104412 | 18.89° C | 67% | 1019.8 hPa | 0 mm | - | 694 W/m² | - |
| 1788103805 | 18.33° C | 68% | 1019.8 hPa | 0 mm | - | 674 W/m² | - |
| 1788103204 | 18.33° C | 71% | 1019.8 hPa | 0 mm | - | 650 W/m² | - |
| 1788102605 | 18.33° C | 72% | 1019.8 hPa | 0 mm | - | 639 W/m² | - |
| 1788102004 | 16.67° C | 80% | 1019.8 hPa | 0 mm | - | 128 W/m² | - |
| 1788101404 | 16.11° C | 81% | 1019.4 hPa | 0 mm | - | 114 W/m² | - |
| 1788100805 | 16.11° C | 84% | 1019.4 hPa | 0.25 mm | - | 154 W/m² | - |
| 1788100205 | 15.56° C | 86% | 1019.4 hPa | 0.25 mm | - | 120 W/m² | - |
| 1788099605 | 15° C | 85% | 1019.4 hPa | 0.25 mm | - | 88 W/m² | - |
| 1788099005 | 15.56° C | 84% | 1019.4 hPa | 0.25 mm | - | 24 W/m² | - |
| 1788098405 | 16.67° C | 75% | 1019.4 hPa | 0.25 mm | - | 34 W/m² | - |
| 1788097805 | 17.22° C | 71% | 1019.4 hPa | 0.25 mm | - | 31 W/m² | - |
| 1788097205 | 17.22° C | 66% | 1019.4 hPa | 0 mm | - | 27 W/m² | - |
| 1788096605 | 15.56° C | 81% | 1019.4 hPa | 0 mm | - | 8 W/m² | - |
| 1788096008 | 15.56° C | 81% | 1019.4 hPa | 0 mm | - | 11 W/m² | - |
| 1788095405 | 16.11° C | 78% | 1019.4 hPa | 0 mm | - | 5 W/m² | - |
| 1788094805 | 16.67° C | 77% | 1019.4 hPa | 0 mm | - | 1 W/m² | - |
| 1788094205 | 17.22° C | 72% | 1018 hPa | 0 mm | - | 0 W/m² | - |
| 1788093605 | 16.67° C | 73% | 1018 hPa | 0.25 mm | - | 0 W/m² | - |
| 1788093005 | 17.78° C | 65% | 1018 hPa | 0.25 mm | - | 0 W/m² | - |
| 1788092405 | 17.78° C | 67% | 1018 hPa | 0.25 mm | - | 0 W/m² | - |
* Rain latest hour (hover to see other rain measurements)
** Current wind speed in m/s (hover to see current wind gust speed)